createdAt,value
2023-03-30T00:01:12.074Z,6.30
2023-03-30T00:03:40.911Z,6.80
2023-03-30T00:06:10.587Z,6.27
2023-03-30T00:08:40.378Z,5.63
2023-03-30T00:11:10.575Z,5.30
2023-03-30T00:13:40.062Z,5.90
2023-03-30T00:16:11.478Z,6.43
2023-03-30T00:18:40.672Z,5.73
2023-03-30T00:21:09.558Z,5.40
2023-03-30T00:23:39.719Z,6.30
2023-03-30T00:26:08.805Z,5.77
2023-03-30T00:28:37.425Z,6.70
2023-03-30T00:31:06.278Z,5.97
2023-03-30T00:33:44.936Z,7.00
2023-03-30T00:36:14.820Z,6.83
2023-03-30T00:38:45.773Z,6.80
2023-03-30T00:41:14.392Z,5.97
2023-03-30T00:44:00.119Z,7.07
2023-03-30T00:46:28.596Z,6.23
2023-03-30T00:48:59.630Z,6.27
2023-03-30T00:51:29.768Z,6.57
2023-03-30T00:54:07.273Z,5.77
2023-03-30T00:56:36.087Z,4.83
2023-03-30T00:59:05.782Z,5.00
2023-03-30T01:01:39.359Z,5.43
2023-03-30T01:04:09.839Z,5.10
2023-03-30T01:06:41.469Z,5.10
2023-03-30T01:09:12.144Z,5.40
2023-03-30T01:11:40.986Z,4.70
2023-03-30T01:14:12.029Z,5.27
2023-03-30T01:16:45.314Z,5.73
2023-03-30T01:20:00.126Z,5.10
2023-03-30T01:22:50.700Z,5.10
2023-03-30T01:25:48.606Z,5.40
2023-03-30T01:28:31.910Z,5.37
2023-03-30T01:31:19.947Z,5.50
2023-03-30T01:34:13.730Z,5.37
2023-03-30T01:37:12.512Z,4.87
2023-03-30T01:39:50.850Z,4.83
2023-03-30T01:42:23.565Z,5.30
2023-03-30T01:44:58.422Z,5.70
2023-03-30T01:47:35.235Z,4.83
2023-03-30T01:50:08.834Z,5.10
2023-03-30T01:52:42.604Z,5.80
2023-03-30T01:55:18.362Z,5.87
2023-03-30T01:57:52.611Z,5.97
2023-03-30T02:00:24.971Z,6.60
2023-03-30T02:02:57.177Z,6.23
2023-03-30T02:05:28.150Z,6.10
2023-03-30T02:08:01.424Z,5.23
2023-03-30T02:10:34.616Z,5.33
2023-03-30T02:13:03.977Z,5.30
2023-03-30T02:15:37.100Z,5.70
2023-03-30T02:18:05.987Z,5.43
2023-03-30T02:20:35.704Z,4.90
2023-03-30T02:23:06.214Z,4.70
2023-03-30T02:25:38.601Z,5.60
2023-03-30T02:28:08.160Z,5.10
2023-03-30T02:30:39.929Z,4.93
2023-03-30T02:33:11.614Z,5.53
2023-03-30T02:35:56.041Z,4.40
2023-03-30T02:38:48.922Z,4.93
2023-03-30T02:41:32.243Z,4.37
2023-03-30T02:44:11.433Z,4.70
2023-03-30T02:46:59.734Z,4.70
2023-03-30T02:49:44.807Z,5.75
2023-03-30T02:52:23.984Z,4.83
2023-03-30T02:54:58.521Z,4.40
2023-03-30T02:57:35.400Z,4.60
2023-03-30T03:00:10.733Z,5.43
2023-03-30T03:02:42.256Z,4.23
2023-03-30T03:05:14.863Z,4.23
2023-03-30T03:07:45.131Z,4.40
2023-03-30T03:10:13.670Z,4.30
2023-03-30T03:12:45.761Z,4.90
2023-03-30T03:15:14.152Z,5.07
2023-03-30T03:17:45.470Z,4.53
2023-03-30T03:20:15.072Z,4.60
2023-03-30T03:22:43.321Z,4.13
2023-03-30T03:25:11.901Z,5.80
2023-03-30T03:27:40.259Z,4.67
2023-03-30T03:30:11.376Z,5.17
2023-03-30T03:32:39.779Z,4.63
2023-03-30T03:35:09.416Z,4.80
2023-03-30T03:37:37.800Z,4.77
2023-03-30T03:40:08.205Z,4.20
2023-03-30T03:42:36.782Z,5.13
2023-03-30T03:45:05.879Z,5.20
2023-03-30T03:47:36.015Z,5.40
2023-03-30T03:50:09.392Z,5.80
2023-03-30T03:52:37.883Z,5.37
2023-03-30T03:55:07.927Z,5.10
2023-03-30T03:57:37.127Z,6.28
2023-03-30T04:00:15.534Z,5.37
2023-03-30T04:02:46.359Z,5.40
2023-03-30T04:05:14.805Z,5.13
2023-03-30T04:07:46.420Z,6.40
2023-03-30T04:10:15.428Z,6.60
2023-03-30T04:12:43.803Z,6.97
2023-03-30T04:15:12.353Z,6.43
2023-03-30T04:17:40.784Z,6.33
2023-03-30T04:20:12.281Z,7.10
2023-03-30T04:22:42.201Z,6.53
2023-03-30T04:25:11.616Z,6.47
2023-03-30T04:27:42.811Z,7.43
2023-03-30T04:30:12.515Z,8.30
2023-03-30T04:32:41.404Z,7.07
2023-03-30T04:35:11.940Z,7.70
2023-03-30T04:37:42.254Z,8.60
2023-03-30T04:40:11.598Z,9.03
2023-03-30T04:42:40.305Z,8.70
2023-03-30T04:45:10.869Z,7.93
2023-03-30T04:47:39.192Z,7.20
2023-03-30T04:50:08.192Z,7.87
2023-03-30T04:52:37.902Z,7.10
2023-03-30T04:55:06.837Z,7.53
2023-03-30T04:57:35.452Z,7.03
2023-03-30T05:00:04.512Z,7.10
2023-03-30T05:02:32.859Z,6.87
2023-03-30T05:05:01.190Z,6.37
2023-03-30T05:07:29.557Z,7.37
2023-03-30T05:09:59.197Z,7.00
2023-03-30T05:12:27.539Z,6.67
2023-03-30T05:14:55.842Z,7.23
2023-03-30T05:17:24.237Z,6.10
2023-03-30T05:19:53.546Z,5.90
2023-03-30T05:22:21.858Z,6.63
2023-03-30T05:24:50.085Z,5.80
2023-03-30T05:27:20.113Z,5.40
2023-03-30T05:29:48.490Z,5.10
2023-03-30T05:32:16.810Z,4.27
2023-03-30T05:34:45.061Z,4.57
2023-03-30T05:37:13.471Z,5.40
2023-03-30T05:39:41.761Z,6.03
2023-03-30T05:42:11.586Z,6.37
2023-03-30T05:44:41.435Z,6.20
2023-03-30T05:47:09.837Z,5.43
2023-03-30T05:49:38.111Z,5.83
2023-03-30T05:52:07.005Z,7.17
2023-03-30T05:54:35.296Z,7.93
2023-03-30T05:57:04.325Z,8.03
2023-03-30T05:59:33.228Z,8.20
2023-03-30T06:02:02.999Z,10.07
2023-03-30T06:04:31.675Z,8.40
2023-03-30T06:07:00.194Z,7.60
2023-03-30T06:09:28.542Z,7.53
2023-03-30T06:11:57.338Z,7.23
2023-03-30T06:14:25.708Z,5.67
2023-03-30T06:16:54.184Z,6.00
2023-03-30T06:19:23.925Z,5.73
2023-03-30T06:21:52.484Z,6.23
2023-03-30T06:24:21.030Z,5.63
2023-03-30T06:26:49.606Z,6.07
2023-03-30T06:29:18.038Z,5.93
2023-03-30T06:31:46.771Z,5.77
2023-03-30T06:34:15.234Z,5.67
2023-03-30T06:36:46.328Z,5.30
2023-03-30T06:39:15.237Z,4.97
2023-03-30T06:41:47.580Z,4.57
2023-03-30T06:44:16.110Z,4.17
2023-03-30T06:46:44.747Z,4.37
2023-03-30T06:49:14.340Z,4.10
2023-03-30T06:51:44.311Z,3.57
2023-03-30T06:54:12.620Z,3.60
2023-03-30T06:56:41.119Z,4.43
2023-03-30T06:59:09.765Z,3.77
2023-03-30T07:01:38.154Z,3.33
2023-03-30T07:04:07.479Z,3.73
2023-03-30T07:06:35.943Z,3.63
2023-03-30T07:09:06.811Z,4.20
2023-03-30T07:11:35.112Z,3.80
2023-03-30T07:14:05.449Z,4.50
2023-03-30T07:16:33.913Z,4.43
2023-03-30T07:19:02.468Z,4.67
2023-03-30T07:21:30.775Z,4.90
2023-03-30T07:24:01.209Z,4.20
2023-03-30T07:26:31.519Z,4.40
2023-03-30T07:28:59.973Z,3.90
2023-03-30T07:31:28.410Z,3.97
2023-03-30T07:33:56.861Z,3.80
2023-03-30T07:36:25.210Z,3.37
2023-03-30T07:38:53.489Z,2.50
2023-03-30T07:41:21.909Z,2.70
2023-03-30T07:43:51.678Z,2.80
2023-03-30T07:46:20.184Z,3.70
2023-03-30T07:48:48.511Z,2.57
2023-03-30T07:51:19.981Z,2.70
2023-03-30T07:53:49.178Z,2.37
2023-03-30T07:56:17.666Z,2.10
2023-03-30T07:58:46.006Z,2.30
2023-03-30T08:01:15.772Z,2.20
2023-03-30T08:03:45.784Z,2.50
2023-03-30T08:06:14.334Z,2.20
2023-03-30T08:08:43.614Z,2.43
2023-03-30T08:11:23.041Z,2.93
2023-03-30T08:14:17.705Z,2.27
2023-03-30T08:16:47.473Z,2.07
2023-03-30T08:19:15.747Z,2.30
2023-03-30T08:21:44.100Z,2.53
2023-03-30T08:24:12.713Z,2.20
2023-03-30T08:27:47.778Z,2.50
2023-03-30T08:30:17.144Z,2.63
2023-03-30T08:32:47.346Z,2.60
2023-03-30T08:35:17.040Z,2.13
2023-03-30T08:37:45.368Z,2.10
2023-03-30T08:40:15.036Z,2.23
2023-03-30T08:43:22.793Z,2.43
2023-03-30T08:45:51.966Z,2.57
2023-03-30T08:48:26.149Z,2.10
2023-03-30T08:50:59.083Z,2.50
2023-03-30T08:53:29.773Z,2.20
2023-03-30T08:56:02.568Z,2.80
2023-03-30T08:58:48.445Z,2.20
2023-03-30T09:01:25.051Z,2.10
2023-03-30T09:04:18.425Z,2.33
2023-03-30T09:06:52.130Z,2.30
2023-03-30T09:09:21.963Z,2.13
2023-03-30T09:11:53.969Z,2.30
2023-03-30T09:14:32.413Z,1.97
2023-03-30T09:17:08.717Z,2.07
2023-03-30T09:19:49.419Z,2.40
2023-03-30T09:22:20.813Z,1.83
2023-03-30T09:24:51.605Z,1.87
2023-03-30T09:27:27.185Z,1.90
2023-03-30T09:29:58.313Z,1.73
2023-03-30T09:32:43.229Z,2.00
2023-03-30T09:35:21.730Z,2.03
2023-03-30T09:37:50.041Z,2.00
2023-03-30T09:40:32.405Z,1.93
2023-03-30T09:43:12.062Z,2.00
2023-03-30T09:45:42.269Z,1.90
2023-03-30T09:48:10.993Z,2.17
2023-03-30T09:50:42.737Z,2.10
2023-03-30T09:53:22.262Z,2.00
2023-03-30T09:56:01.322Z,1.80
2023-03-30T09:58:31.170Z,2.00
2023-03-30T10:01:05.031Z,1.80
2023-03-30T10:03:33.884Z,2.40
2023-03-30T10:06:07.566Z,1.80
2023-03-30T10:08:42.946Z,1.70
2023-03-30T10:11:11.859Z,2.00
2023-03-30T10:13:43.489Z,2.20
2023-03-30T10:16:22.178Z,1.70
2023-03-30T10:18:54.853Z,1.60
2023-03-30T10:21:27.353Z,1.80
2023-03-30T10:24:08.221Z,1.87
2023-03-30T10:26:39.225Z,1.50
2023-03-30T10:29:11.172Z,2.10
2023-03-30T10:31:44.072Z,1.80
2023-03-30T10:34:18.214Z,2.00
2023-03-30T10:36:51.892Z,2.30
2023-03-30T10:39:25.809Z,2.50
2023-03-30T10:41:57.285Z,1.77
2023-03-30T10:44:32.057Z,2.23
2023-03-30T10:47:12.613Z,2.07
2023-03-30T10:49:51.620Z,2.30
2023-03-30T10:52:28.497Z,2.10
2023-03-30T10:55:03.897Z,2.27
2023-03-30T10:57:42.245Z,2.10
2023-03-30T11:00:32.833Z,2.00
2023-03-30T11:03:09.023Z,1.63
2023-03-30T11:05:41.814Z,1.80
2023-03-30T11:08:16.463Z,2.17
2023-03-30T11:10:49.284Z,1.90
2023-03-30T11:13:21.388Z,1.47
2023-03-30T11:15:53.880Z,1.57
2023-03-30T11:18:39.714Z,1.67
2023-03-30T11:21:12.332Z,1.83
2023-03-30T11:23:55.208Z,1.83
2023-03-30T11:26:31.040Z,1.70
2023-03-30T11:29:27.137Z,1.53
2023-03-30T11:32:01.151Z,1.53
2023-03-30T11:34:36.717Z,1.50
2023-03-30T11:37:13.875Z,1.30
2023-03-30T11:39:53.248Z,1.50
2023-03-30T11:42:26.833Z,1.50
2023-03-30T11:44:55.100Z,1.60
2023-03-30T11:47:42.381Z,1.63
2023-03-30T11:50:30.517Z,1.70
2023-03-30T11:53:20.631Z,1.97
2023-03-30T11:56:07.897Z,1.50
2023-03-30T11:58:38.663Z,1.40
2023-03-30T12:01:27.706Z,1.53
2023-03-30T12:04:09.557Z,1.90
2023-03-30T12:06:43.797Z,1.37
2023-03-30T12:09:35.603Z,1.27
2023-03-30T12:12:12.265Z,1.87
2023-03-30T12:14:48.944Z,1.80
2023-03-30T12:17:53.369Z,1.50
2023-03-30T12:20:35.250Z,1.73
2023-03-30T12:23:15.014Z,1.67
2023-03-30T12:26:04.243Z,1.70
2023-03-30T12:29:04.963Z,1.40
2023-03-30T12:32:11.038Z,1.50
2023-03-30T12:34:45.101Z,1.77
2023-03-30T12:37:22.573Z,1.57
2023-03-30T12:39:58.162Z,1.60
2023-03-30T12:42:34.382Z,1.60
2023-03-30T12:45:22.338Z,1.57
2023-03-30T12:48:23.604Z,1.63
2023-03-30T12:51:07.489Z,1.37
2023-03-30T12:54:33.785Z,1.73
2023-03-30T13:00:27.194Z,1.50
2023-03-30T13:03:39.486Z,1.33
2023-03-30T13:06:15.806Z,1.97
2023-03-30T13:08:44.243Z,1.30
2023-03-30T13:11:16.160Z,1.07
2023-03-30T13:13:51.242Z,1.50
2023-03-30T13:17:06.978Z,1.50
2023-03-30T13:20:12.708Z,1.52
2023-03-30T13:23:03.294Z,1.60
2023-03-30T13:25:40.593Z,1.45
2023-03-30T13:28:51.769Z,1.63
2023-03-30T13:31:45.939Z,1.42
2023-03-30T13:34:30.569Z,1.55
2023-03-30T13:37:05.893Z,1.63
2023-03-30T13:39:42.525Z,1.50
2023-03-30T13:42:32.594Z,1.27
2023-03-30T13:45:09.423Z,1.48
2023-03-30T13:47:48.013Z,1.38
2023-03-30T13:50:26.565Z,1.52
2023-03-30T13:52:58.348Z,1.52
2023-03-30T13:55:33.244Z,1.23
2023-03-30T13:58:05.910Z,1.65
2023-03-30T14:00:45.282Z,1.63
2023-03-30T14:03:32.422Z,1.48
2023-03-30T14:06:04.742Z,1.30
2023-03-30T14:08:36.017Z,1.38
2023-03-30T14:11:15.431Z,1.75
2023-03-30T14:13:45.880Z,1.55
2023-03-30T14:16:22.378Z,1.35
2023-03-30T14:18:51.180Z,1.55
2023-03-30T14:21:24.092Z,1.83
2023-03-30T14:23:54.255Z,1.60
2023-03-30T14:26:26.454Z,1.60
2023-03-30T14:28:56.661Z,1.70
2023-03-30T14:31:27.327Z,2.10
2023-03-30T14:33:55.978Z,1.80
2023-03-30T14:36:26.268Z,1.70
2023-03-30T14:38:57.607Z,1.48
2023-03-30T14:41:27.795Z,2.70
2023-03-30T14:43:58.169Z,1.88
2023-03-30T14:46:31.980Z,1.55
2023-03-30T14:49:00.408Z,1.88
2023-03-30T14:51:40.553Z,1.48
2023-03-30T14:54:10.219Z,1.57
2023-03-30T14:56:38.647Z,1.50
2023-03-30T14:59:08.343Z,1.67
2023-03-30T15:01:37.198Z,1.53
2023-03-30T15:04:09.555Z,1.60
2023-03-30T15:06:39.788Z,1.47
2023-03-30T15:09:14.069Z,1.70
2023-03-30T15:11:43.018Z,1.40
2023-03-30T15:14:16.415Z,1.80
2023-03-30T15:16:47.552Z,1.30
2023-03-30T15:19:27.429Z,1.60
2023-03-30T15:22:00.334Z,2.10
2023-03-30T15:24:33.116Z,1.67
2023-03-30T15:27:04.116Z,1.60
2023-03-30T15:29:33.381Z,1.87
2023-03-30T15:32:07.295Z,2.13
2023-03-30T15:34:35.549Z,2.00
2023-03-30T15:37:06.148Z,1.90
2023-03-30T15:39:36.372Z,1.53
2023-03-30T15:42:07.154Z,1.60
2023-03-30T15:44:37.655Z,1.93
2023-03-30T15:47:11.111Z,2.00
2023-03-30T15:49:42.702Z,1.70
2023-03-30T15:52:17.987Z,1.50
2023-03-30T15:54:51.808Z,1.70
2023-03-30T15:57:25.248Z,1.80
2023-03-30T15:59:57.165Z,1.80
2023-03-30T16:02:37.793Z,2.27
2023-03-30T16:05:08.427Z,1.77
2023-03-30T16:07:41.942Z,2.43
2023-03-30T16:10:15.054Z,2.20
2023-03-30T16:12:45.118Z,2.10
2023-03-30T16:15:16.302Z,2.30
2023-03-30T16:17:44.916Z,1.90
2023-03-30T16:20:18.280Z,2.20
2023-03-30T16:22:48.550Z,1.80
2023-03-30T16:25:18.402Z,2.13
2023-03-30T16:27:46.915Z,2.13
2023-03-30T16:30:20.198Z,2.30
2023-03-30T16:32:48.727Z,2.17
2023-03-30T16:35:17.178Z,2.50
2023-03-30T16:37:45.572Z,2.27
2023-03-30T16:40:27.089Z,2.60
2023-03-30T16:42:55.448Z,2.40
2023-03-30T16:45:23.882Z,2.73
2023-03-30T16:47:52.373Z,3.20
2023-03-30T16:50:24.191Z,2.00
2023-03-30T16:52:52.931Z,2.70
2023-03-30T16:55:22.607Z,2.70
2023-03-30T16:57:51.824Z,2.37
2023-03-30T17:00:24.348Z,2.10
2023-03-30T17:02:52.710Z,2.93
2023-03-30T17:05:21.592Z,2.83
2023-03-30T17:07:50.027Z,2.80
2023-03-30T17:10:26.203Z,2.67
2023-03-30T17:12:55.019Z,2.47
2023-03-30T17:15:24.826Z,2.80
2023-03-30T17:17:53.777Z,3.27
2023-03-30T17:20:25.883Z,2.97
2023-03-30T17:22:54.757Z,3.17
2023-03-30T17:25:26.567Z,3.20
2023-03-30T17:27:57.511Z,2.30
2023-03-30T17:30:27.862Z,3.43
2023-03-30T17:32:57.228Z,2.60
2023-03-30T17:35:26.579Z,2.40
2023-03-30T17:37:55.595Z,2.20
2023-03-30T17:40:26.310Z,2.90
2023-03-30T17:42:56.412Z,2.77
2023-03-30T17:45:26.691Z,2.43
2023-03-30T17:47:55.114Z,2.60
2023-03-30T17:50:26.680Z,2.83
2023-03-30T17:52:56.871Z,2.10
2023-03-30T17:55:27.349Z,2.90
2023-03-30T17:58:00.639Z,2.70
2023-03-30T18:00:32.405Z,3.07
2023-03-30T18:03:01.790Z,3.30
2023-03-30T18:05:32.275Z,3.73
2023-03-30T18:08:00.702Z,2.73
2023-03-30T18:10:34.127Z,3.10
2023-03-30T18:13:04.215Z,3.65
2023-03-30T18:15:33.307Z,2.80
2023-03-30T18:18:02.423Z,3.43
2023-03-30T18:20:33.499Z,3.07
2023-03-30T18:23:01.986Z,3.20
2023-03-30T18:25:32.952Z,3.40
2023-03-30T18:28:02.008Z,3.57
2023-03-30T18:30:33.519Z,3.17
2023-03-30T18:33:02.041Z,4.20
2023-03-30T18:35:33.883Z,2.80
2023-03-30T18:38:03.037Z,2.90
2023-03-30T18:40:37.228Z,3.47
2023-03-30T18:43:06.299Z,3.50
2023-03-30T18:45:38.188Z,3.23
2023-03-30T18:48:08.776Z,3.30
2023-03-30T18:50:39.199Z,3.90
2023-03-30T18:53:09.283Z,3.67
2023-03-30T18:55:39.359Z,3.70
2023-03-30T18:58:13.444Z,3.37
2023-03-30T19:00:43.566Z,4.30
2023-03-30T19:03:13.386Z,3.90
2023-03-30T19:05:42.857Z,4.33
2023-03-30T19:08:13.245Z,3.67
2023-03-30T19:10:43.190Z,3.57
2023-03-30T19:13:19.818Z,3.90
2023-03-30T19:15:51.270Z,4.27
2023-03-30T19:18:19.965Z,4.90
2023-03-30T19:20:50.147Z,4.03
2023-03-30T19:23:21.669Z,5.53
2023-03-30T19:25:50.118Z,5.30
2023-03-30T19:28:18.544Z,5.00
2023-03-30T19:30:48.440Z,5.90
2023-03-30T19:33:19.863Z,5.47
2023-03-30T19:35:51.116Z,5.17
2023-03-30T19:38:19.779Z,5.20
2023-03-30T19:40:48.079Z,4.70
2023-03-30T19:43:16.545Z,4.83
2023-03-30T19:45:44.866Z,5.37
2023-03-30T19:48:14.601Z,4.50
2023-03-30T19:50:42.965Z,4.80
2023-03-30T19:53:11.498Z,5.63
2023-03-30T19:55:39.830Z,5.07
2023-03-30T19:58:08.226Z,4.77
2023-03-30T20:00:37.606Z,4.80
2023-03-30T20:03:06.317Z,4.87
2023-03-30T20:05:36.145Z,4.88
2023-03-30T20:08:13.735Z,4.30
2023-03-30T20:10:51.389Z,4.13
2023-03-30T20:13:22.093Z,4.17
2023-03-30T20:15:54.720Z,4.13
2023-03-30T20:18:23.069Z,5.13
2023-03-30T20:20:53.106Z,4.07
2023-03-30T20:23:21.534Z,3.87
2023-03-30T20:25:50.669Z,4.43
2023-03-30T20:28:19.019Z,4.40
2023-03-30T20:30:47.398Z,3.93
2023-03-30T20:33:15.798Z,3.80
2023-03-30T20:35:44.367Z,4.00
2023-03-30T20:38:14.066Z,3.47
2023-03-30T20:40:42.413Z,3.77
2023-03-30T20:43:11.006Z,3.43
2023-03-30T20:45:46.294Z,3.63
2023-03-30T20:48:26.361Z,3.70
2023-03-30T20:50:59.027Z,3.60
2023-03-30T20:53:29.369Z,3.90
2023-03-30T20:55:57.994Z,4.03
2023-03-30T20:58:28.749Z,3.70
2023-03-30T21:00:59.142Z,4.07
2023-03-30T21:03:30.279Z,3.73
2023-03-30T21:06:03.794Z,4.00
2023-03-30T21:08:35.067Z,4.40
2023-03-30T21:11:04.043Z,3.93
2023-03-30T21:13:32.544Z,4.30
2023-03-30T21:16:02.719Z,4.30
2023-03-30T21:18:31.220Z,4.37
2023-03-30T21:20:59.594Z,3.37
2023-03-30T21:23:29.212Z,4.40
2023-03-30T21:26:02.748Z,4.17
2023-03-30T21:28:31.869Z,4.30
2023-03-30T21:31:01.759Z,4.37
2023-03-30T21:33:30.730Z,4.27
2023-03-30T21:36:00.379Z,4.53
2023-03-30T21:38:30.741Z,4.07
2023-03-30T21:41:03.142Z,4.10
2023-03-30T21:43:33.199Z,5.00
2023-03-30T21:46:03.593Z,4.50
2023-03-30T21:48:33.159Z,4.50
2023-03-30T21:51:02.903Z,4.23
2023-03-30T21:53:32.696Z,4.10
2023-03-30T21:56:03.276Z,4.17
2023-03-30T21:58:31.770Z,4.77
2023-03-30T22:01:11.249Z,4.27
2023-03-30T22:03:40.855Z,4.50
2023-03-30T22:06:11.394Z,4.63
2023-03-30T22:08:39.978Z,4.20
2023-03-30T22:11:12.196Z,4.10
2023-03-30T22:13:41.105Z,4.40
2023-03-30T22:16:12.693Z,4.43
2023-03-30T22:18:41.317Z,4.10
2023-03-30T22:21:12.962Z,4.30
2023-03-30T22:23:41.331Z,3.70
2023-03-30T22:26:12.000Z,3.63
2023-03-30T22:28:40.638Z,3.63
2023-03-30T22:31:09.559Z,3.57
2023-03-30T22:33:37.946Z,4.93
2023-03-30T22:36:07.741Z,4.77
2023-03-30T22:38:36.373Z,3.93
2023-03-30T22:41:07.851Z,4.17
2023-03-30T22:43:37.789Z,4.30
2023-03-30T22:46:06.832Z,4.83
2023-03-30T22:48:35.794Z,4.60
2023-03-30T22:51:04.760Z,4.17
2023-03-30T22:53:33.703Z,4.40
2023-03-30T22:56:02.797Z,4.30
2023-03-30T22:58:31.265Z,4.43
2023-03-30T23:01:06.139Z,4.10
2023-03-30T23:03:34.635Z,3.90
2023-03-30T23:06:03.524Z,4.30
2023-03-30T23:08:32.281Z,3.70
2023-03-30T23:11:05.253Z,4.00
2023-03-30T23:13:37.815Z,3.53
2023-03-30T23:16:08.817Z,3.10
2023-03-30T23:18:37.773Z,3.20
2023-03-30T23:21:07.461Z,3.30
2023-03-30T23:23:37.155Z,4.10
2023-03-30T23:26:08.796Z,3.63
2023-03-30T23:28:38.983Z,3.73
2023-03-30T23:31:13.284Z,3.43
2023-03-30T23:33:41.692Z,3.37
2023-03-30T23:36:13.641Z,2.90
2023-03-30T23:38:42.446Z,3.20
2023-03-30T23:41:11.918Z,3.10
2023-03-30T23:43:40.427Z,3.57
2023-03-30T23:46:09.905Z,3.80
2023-03-30T23:48:39.923Z,3.43
2023-03-30T23:51:08.454Z,3.93
2023-03-30T23:53:40.497Z,2.60
2023-03-30T23:56:13.021Z,2.97
2023-03-30T23:58:42.039Z,3.30
